createdAt,value
2018-04-10T00:00:03.596Z,0
2018-04-10T00:00:29.744Z,0
2018-04-10T00:00:55.878Z,0
2018-04-10T00:01:22.045Z,0
2018-04-10T00:01:48.192Z,0
2018-04-10T00:02:14.330Z,0
2018-04-10T00:02:40.470Z,0
2018-04-10T00:03:06.632Z,0
2018-04-10T00:03:32.771Z,0
2018-04-10T00:03:58.914Z,0
2018-04-10T00:04:25.050Z,0
2018-04-10T00:04:51.208Z,0
2018-04-10T00:05:17.360Z,0
2018-04-10T00:05:43.490Z,0
2018-04-10T00:06:09.634Z,0
2018-04-10T00:06:35.795Z,0
2018-04-10T00:07:01.943Z,0
2018-04-10T00:07:28.115Z,0
2018-04-10T00:07:54.263Z,0
2018-04-10T00:08:20.417Z,0
2018-04-10T00:08:46.587Z,0
2018-04-10T00:09:12.751Z,0
2018-04-10T00:09:38.891Z,0
2018-04-10T00:10:05.056Z,0
2018-04-10T00:10:31.197Z,0
2018-04-10T00:10:57.337Z,0
2018-04-10T00:11:23.480Z,0
2018-04-10T00:11:49.621Z,0
2018-04-10T00:12:15.759Z,0
2018-04-10T00:12:41.928Z,0
2018-04-10T00:13:08.079Z,0
2018-04-10T00:13:34.221Z,0
2018-04-10T00:14:00.383Z,0
2018-04-10T00:14:26.533Z,0
2018-04-10T00:14:52.671Z,0
2018-04-10T00:15:18.837Z,0
2018-04-10T00:15:44.991Z,0
2018-04-10T00:16:11.127Z,0
2018-04-10T00:16:37.291Z,0
2018-04-10T00:17:03.436Z,0
2018-04-10T00:17:29.573Z,0
2018-04-10T00:17:55.720Z,0
2018-04-10T00:18:21.896Z,0
2018-04-10T00:18:48.057Z,0
2018-04-10T00:19:14.199Z,0
2018-04-10T00:19:40.341Z,0
2018-04-10T00:20:06.483Z,0
2018-04-10T00:20:32.630Z,0
2018-04-10T00:20:58.771Z,0
2018-04-10T00:21:24.931Z,0
2018-04-10T00:21:51.102Z,0
2018-04-10T00:22:17.273Z,0
2018-04-10T00:22:43.432Z,0
2018-04-10T00:23:09.572Z,0
2018-04-10T00:23:35.716Z,0
2018-04-10T00:24:01.864Z,0
2018-04-10T00:24:28.021Z,0
2018-04-10T00:24:54.166Z,0
2018-04-10T00:25:20.309Z,0
2018-04-10T00:25:46.458Z,0
2018-04-10T00:26:12.598Z,0
2018-04-10T00:26:38.732Z,0
2018-04-10T00:27:04.872Z,0
2018-04-10T00:27:31.067Z,0
2018-04-10T00:27:57.233Z,0
2018-04-10T00:28:23.382Z,0
2018-04-10T00:28:49.536Z,0
2018-04-10T00:29:15.709Z,0
2018-04-10T00:29:41.851Z,0
2018-04-10T00:30:07.993Z,0
2018-04-10T00:30:34.131Z,0
2018-04-10T00:31:00.276Z,0
2018-04-10T00:31:26.410Z,0
2018-04-10T00:31:52.576Z,0
2018-04-10T00:32:18.749Z,0
2018-04-10T00:32:44.907Z,0
2018-04-10T00:33:11.044Z,0
2018-04-10T00:33:37.187Z,0
2018-04-10T00:34:03.351Z,0
2018-04-10T00:34:29.517Z,0
2018-04-10T00:34:55.657Z,0
2018-04-10T00:35:21.801Z,0
2018-04-10T00:35:47.961Z,0
2018-04-10T00:36:14.096Z,0
2018-04-10T00:36:40.239Z,0
2018-04-10T00:37:06.376Z,0
2018-04-10T00:37:32.519Z,0
2018-04-10T00:37:58.667Z,0
2018-04-10T00:38:24.807Z,0
2018-04-10T00:38:50.937Z,0
2018-04-10T00:39:17.084Z,0
2018-04-10T00:39:43.221Z,0
2018-04-10T00:40:09.387Z,0
2018-04-10T00:40:35.551Z,0
2018-04-10T00:41:01.687Z,0
2018-04-10T00:41:27.830Z,0
2018-04-10T00:41:53.962Z,0
2018-04-10T00:42:20.132Z,0
2018-04-10T00:42:46.292Z,0
2018-04-10T00:43:12.431Z,0
2018-04-10T00:43:38.569Z,0
2018-04-10T00:44:04.711Z,0
2018-04-10T00:44:30.858Z,0
2018-04-10T00:44:57.026Z,0
2018-04-10T00:45:23.160Z,0
2018-04-10T00:45:49.306Z,0
2018-04-10T00:46:15.441Z,0
2018-04-10T00:46:41.583Z,0
2018-04-10T00:47:07.717Z,0
2018-04-10T00:47:33.853Z,0
2018-04-10T00:47:59.997Z,0
2018-04-10T00:48:26.138Z,0
2018-04-10T00:48:52.274Z,0
2018-04-10T00:49:18.414Z,0
2018-04-10T00:49:44.553Z,0
2018-04-10T00:50:10.705Z,0
2018-04-10T00:50:36.842Z,0
2018-04-10T00:51:03.016Z,0
2018-04-10T00:51:29.158Z,0
2018-04-10T00:51:55.298Z,0
2018-04-10T00:52:21.439Z,0
2018-04-10T00:52:47.585Z,0
2018-04-10T00:53:13.726Z,0
2018-04-10T00:53:39.860Z,0
2018-04-10T00:54:06.003Z,0
2018-04-10T00:54:32.149Z,0
2018-04-10T00:54:58.291Z,0
2018-04-10T00:55:24.457Z,0
2018-04-10T00:55:50.595Z,0
2018-04-10T00:56:16.726Z,0
2018-04-10T00:56:42.874Z,0
2018-04-10T00:57:09.012Z,0
2018-04-10T00:57:35.150Z,0
2018-04-10T00:58:01.291Z,0
2018-04-10T00:58:27.432Z,0
2018-04-10T00:58:53.576Z,0
2018-04-10T00:59:19.714Z,0
2018-04-10T00:59:45.882Z,0
2018-04-10T01:00:12.053Z,0
2018-04-10T01:00:38.192Z,0
2018-04-10T01:01:04.331Z,0
2018-04-10T01:01:30.474Z,0
2018-04-10T01:01:56.611Z,0
2018-04-10T01:02:22.747Z,0
2018-04-10T01:02:48.912Z,0
2018-04-10T01:03:15.059Z,0
2018-04-10T01:03:41.218Z,0
2018-04-10T01:04:07.384Z,0
2018-04-10T01:04:33.525Z,0
2018-04-10T01:04:59.667Z,0
2018-04-10T01:05:25.812Z,0
2018-04-10T01:05:51.949Z,0
2018-04-10T01:06:18.109Z,0
2018-04-10T01:06:44.250Z,0
2018-04-10T01:07:10.391Z,0
2018-04-10T01:07:36.532Z,0
2018-04-10T01:08:02.669Z,0
2018-04-10T01:08:28.808Z,0
2018-04-10T01:08:54.946Z,0
2018-04-10T01:09:21.094Z,0
2018-04-10T01:09:47.232Z,0
2018-04-10T01:10:13.372Z,0
2018-04-10T01:10:39.542Z,0
2018-04-10T01:11:05.687Z,0
2018-04-10T01:11:31.827Z,0
2018-04-10T01:11:57.962Z,0
2018-04-10T01:12:24.104Z,0
2018-04-10T01:12:50.277Z,0
2018-04-10T01:13:16.420Z,0
2018-04-10T01:13:42.568Z,0
2018-04-10T01:14:08.701Z,0
2018-04-10T01:14:34.844Z,0
2018-04-10T01:15:00.986Z,0
2018-04-10T01:15:27.126Z,0
2018-04-10T01:15:53.322Z,0
2018-04-10T01:16:19.460Z,0
2018-04-10T01:16:45.601Z,0
2018-04-10T01:17:11.745Z,0
2018-04-10T01:17:37.882Z,0
2018-04-10T01:18:04.016Z,0
2018-04-10T01:18:30.157Z,0
2018-04-10T01:18:56.299Z,0
2018-04-10T01:19:22.441Z,0
2018-04-10T01:19:48.589Z,0
2018-04-10T01:20:14.721Z,0
2018-04-10T01:20:40.858Z,0
2018-04-10T01:21:07.028Z,0
2018-04-10T01:21:33.170Z,0
2018-04-10T01:21:59.330Z,0
2018-04-10T01:22:25.474Z,0
2018-04-10T01:22:51.637Z,0
2018-04-10T01:23:17.807Z,0
2018-04-10T01:23:43.944Z,0
2018-04-10T01:24:10.084Z,0
2018-04-10T01:24:36.224Z,0
2018-04-10T01:25:02.375Z,0
2018-04-10T01:25:28.503Z,0
2018-04-10T01:25:54.646Z,0
2018-04-10T01:26:20.784Z,0
2018-04-10T01:26:46.950Z,0
2018-04-10T01:27:13.109Z,0
2018-04-10T01:27:39.252Z,0
2018-04-10T01:28:05.387Z,0
2018-04-10T01:28:31.534Z,0
2018-04-10T01:28:57.673Z,0
2018-04-10T01:29:23.818Z,0
2018-04-10T01:29:49.960Z,0
2018-04-10T01:30:16.104Z,0
2018-04-10T01:30:42.240Z,0
2018-04-10T01:31:08.389Z,0
2018-04-10T01:31:34.526Z,0
2018-04-10T01:32:00.665Z,0
2018-04-10T01:32:26.806Z,0
2018-04-10T01:32:52.937Z,0
2018-04-10T01:33:19.078Z,0
2018-04-10T01:33:45.214Z,0
2018-04-10T01:34:11.362Z,0
2018-04-10T01:34:37.530Z,0
2018-04-10T01:35:03.664Z,0
2018-04-10T01:35:29.815Z,0
2018-04-10T01:35:55.953Z,0
2018-04-10T01:36:22.093Z,0
2018-04-10T01:36:48.260Z,0
2018-04-10T01:37:14.398Z,0
2018-04-10T01:37:40.539Z,0
2018-04-10T01:38:06.700Z,0
2018-04-10T01:38:32.833Z,0
2018-04-10T01:38:58.980Z,0
2018-04-10T01:39:25.118Z,0
2018-04-10T01:39:51.258Z,0
2018-04-10T01:40:17.444Z,0
2018-04-10T01:40:43.587Z,0
2018-04-10T01:41:09.716Z,0
2018-04-10T01:41:35.852Z,0
2018-04-10T01:42:01.997Z,0
2018-04-10T01:42:28.140Z,0
2018-04-10T01:42:54.274Z,0
2018-04-10T01:43:20.422Z,0
2018-04-10T01:43:46.559Z,0
2018-04-10T01:44:12.705Z,0
2018-04-10T01:44:38.844Z,0
2018-04-10T01:45:04.989Z,0
2018-04-10T01:45:31.123Z,0
2018-04-10T01:45:57.264Z,0
2018-04-10T01:46:23.404Z,0
2018-04-10T01:46:49.545Z,0
2018-04-10T01:47:15.682Z,0
2018-04-10T01:47:41.820Z,0
2018-04-10T01:48:07.962Z,0
2018-04-10T01:48:34.102Z,0
2018-04-10T01:49:00.242Z,0
2018-04-10T01:49:26.384Z,0
2018-04-10T01:49:52.545Z,0
2018-04-10T01:50:18.686Z,0
2018-04-10T01:50:44.816Z,0
2018-04-10T01:51:10.960Z,0
2018-04-10T01:51:37.099Z,0
2018-04-10T01:52:03.241Z,0
2018-04-10T01:52:29.406Z,0
2018-04-10T01:52:55.545Z,0
2018-04-10T01:53:21.686Z,0
2018-04-10T01:53:47.829Z,0
2018-04-10T01:54:13.963Z,0
2018-04-10T01:54:40.103Z,0
2018-04-10T01:55:06.236Z,0
2018-04-10T01:55:32.388Z,0
2018-04-10T01:55:58.520Z,0
2018-04-10T01:56:24.660Z,0
2018-04-10T01:56:50.803Z,0
2018-04-10T01:57:16.944Z,0
2018-04-10T01:57:43.107Z,0
2018-04-10T01:58:09.245Z,0
2018-04-10T01:58:35.390Z,0
2018-04-10T01:59:01.553Z,0
2018-04-10T01:59:27.698Z,0
2018-04-10T01:59:53.842Z,0
2018-04-10T02:00:20.008Z,0
2018-04-10T02:00:46.145Z,0
2018-04-10T02:01:12.287Z,0
2018-04-10T02:01:38.444Z,0
2018-04-10T02:02:04.586Z,0
2018-04-10T02:02:30.731Z,0
2018-04-10T02:02:56.870Z,0
2018-04-10T02:03:23.037Z,0
2018-04-10T02:03:49.173Z,0
2018-04-10T02:04:15.314Z,0
2018-04-10T02:04:41.454Z,0
2018-04-10T02:05:07.589Z,0
2018-04-10T02:05:33.731Z,0
2018-04-10T02:05:59.868Z,0
2018-04-10T02:06:26.016Z,0
2018-04-10T02:06:52.160Z,0
2018-04-10T02:07:18.298Z,0
2018-04-10T02:07:44.434Z,0
2018-04-10T02:08:10.574Z,0
2018-04-10T02:08:36.735Z,0
2018-04-10T02:09:02.875Z,0
2018-04-10T02:09:29.013Z,0
2018-04-10T02:16:02.669Z,0
2018-04-10T02:16:28.809Z,0
2018-04-10T02:16:54.944Z,0
2018-04-10T02:17:21.091Z,0
2018-04-10T02:17:47.227Z,0
2018-04-10T02:18:13.398Z,0
2018-04-10T02:18:39.539Z,0
2018-04-10T02:19:05.680Z,0
2018-04-10T02:19:31.817Z,0
2018-04-10T02:19:57.964Z,0
2018-04-10T02:20:24.127Z,0
2018-04-10T02:20:50.269Z,0
2018-04-10T02:21:16.407Z,0
2018-04-10T02:21:42.547Z,0
2018-04-10T02:22:08.693Z,0
2018-04-10T02:22:34.859Z,0
2018-04-10T02:23:01.000Z,0
2018-04-10T02:23:27.145Z,0
2018-04-10T02:23:53.302Z,0
2018-04-10T02:24:19.437Z,0
2018-04-10T02:24:45.586Z,0
2018-04-10T02:25:11.725Z,0
2018-04-10T02:25:37.869Z,0
2018-04-10T02:26:04.009Z,0
2018-04-10T02:26:30.154Z,0
2018-04-10T02:26:56.308Z,0
2018-04-10T02:27:22.474Z,0
2018-04-10T02:27:48.612Z,0
2018-04-10T02:28:14.757Z,0
2018-04-10T02:28:40.897Z,0
2018-04-10T02:29:07.037Z,0
2018-04-10T02:29:33.179Z,0
2018-04-10T02:29:59.338Z,0
2018-04-10T02:30:25.480Z,0
2018-04-10T02:30:51.635Z,0
2018-04-10T02:31:17.777Z,0
2018-04-10T02:31:43.912Z,0
2018-04-10T02:32:10.082Z,0
2018-04-10T02:32:36.223Z,0
2018-04-10T02:33:02.365Z,0
2018-04-10T02:33:28.521Z,0
2018-04-10T02:33:54.661Z,0
2018-04-10T02:34:20.831Z,0
2018-04-10T02:34:46.971Z,0
2018-04-10T02:35:13.112Z,0
2018-04-10T02:35:39.271Z,0
2018-04-10T02:36:05.411Z,0
2018-04-10T02:36:31.571Z,0
2018-04-10T02:36:57.737Z,0
2018-04-10T02:37:23.876Z,0
2018-04-10T02:37:50.018Z,0
2018-04-10T02:38:16.164Z,0
2018-04-10T02:38:42.323Z,0
2018-04-10T02:39:08.462Z,0
2018-04-10T02:39:34.607Z,0
2018-04-10T02:40:00.751Z,0
2018-04-10T02:40:26.890Z,0
2018-04-10T02:40:53.028Z,0
2018-04-10T02:41:19.165Z,0
2018-04-10T02:41:45.311Z,0
2018-04-10T02:42:11.497Z,0
2018-04-10T02:42:37.643Z,0
2018-04-10T02:43:03.787Z,0
2018-04-10T02:43:29.921Z,0
2018-04-10T02:43:56.089Z,0
2018-04-10T02:44:22.270Z,0
2018-04-10T02:44:48.409Z,0
2018-04-10T02:45:14.551Z,0
2018-04-10T02:45:40.712Z,0
2018-04-10T02:46:06.903Z,0
2018-04-10T02:46:33.039Z,0
2018-04-10T02:46:59.181Z,0
2018-04-10T02:47:25.324Z,0
2018-04-10T02:47:51.463Z,0
2018-04-10T02:48:17.627Z,0
2018-04-10T02:48:43.790Z,0
2018-04-10T02:49:09.935Z,0
2018-04-10T02:49:36.094Z,0
2018-04-10T02:50:02.235Z,0
2018-04-10T02:50:28.397Z,0
2018-04-10T02:50:54.540Z,0
2018-04-10T02:51:20.697Z,0
2018-04-10T02:51:46.838Z,0
2018-04-10T02:52:13.000Z,0
2018-04-10T02:52:39.138Z,0
2018-04-10T02:53:05.279Z,0
2018-04-10T02:53:31.412Z,0
2018-04-10T02:53:57.555Z,0
2018-04-10T02:54:23.693Z,0
2018-04-10T02:54:49.834Z,0
2018-04-10T02:55:15.978Z,0
2018-04-10T02:55:42.142Z,0
2018-04-10T02:56:08.286Z,0
2018-04-10T02:56:34.422Z,0
2018-04-10T02:57:00.560Z,0
2018-04-10T02:57:26.720Z,0
2018-04-10T02:57:52.859Z,0
2018-04-10T02:58:19.004Z,0
2018-04-10T02:58:45.164Z,0
2018-04-10T02:59:11.330Z,0
2018-04-10T02:59:37.494Z,0
2018-04-10T03:00:03.650Z,0
2018-04-10T03:00:29.791Z,0
2018-04-10T03:00:55.933Z,0
2018-04-10T03:01:22.072Z,0
2018-04-10T03:01:48.242Z,0
2018-04-10T03:02:14.383Z,0
2018-04-10T03:02:40.521Z,0
2018-04-10T03:03:06.679Z,0
2018-04-10T03:03:32.838Z,0
2018-04-10T03:03:58.960Z,0
2018-04-10T03:04:25.105Z,0
2018-04-10T03:04:51.266Z,0
2018-04-10T03:05:17.411Z,0
2018-04-10T03:05:43.552Z,0
2018-04-10T03:06:09.696Z,0
2018-04-10T03:06:35.845Z,0
2018-04-10T03:07:02.005Z,0
2018-04-10T03:07:28.149Z,0
2018-04-10T03:07:54.309Z,0
2018-04-10T03:08:20.447Z,0
2018-04-10T03:08:46.581Z,0
2018-04-10T03:09:12.723Z,0
2018-04-10T03:09:38.868Z,0
2018-04-10T03:10:05.035Z,0
2018-04-10T03:10:31.171Z,0
2018-04-10T03:10:57.313Z,0
2018-04-10T03:11:23.459Z,0
2018-04-10T03:11:49.600Z,0
2018-04-10T03:12:15.759Z,0
2018-04-10T03:12:41.896Z,0
2018-04-10T03:13:08.038Z,0
2018-04-10T03:13:34.182Z,0
2018-04-10T03:14:00.343Z,0
2018-04-10T03:14:26.481Z,0
2018-04-10T03:14:52.648Z,0
2018-04-10T03:15:18.780Z,0
2018-04-10T03:15:44.921Z,0
2018-04-10T03:16:11.062Z,0
2018-04-10T03:16:37.224Z,0
2018-04-10T03:17:03.364Z,0
2018-04-10T03:17:29.505Z,0
2018-04-10T03:17:55.648Z,0
2018-04-10T03:18:21.805Z,0
2018-04-10T03:18:47.938Z,0
2018-04-10T03:19:14.085Z,0
2018-04-10T03:19:40.229Z,0
2018-04-10T03:20:06.367Z,0
2018-04-10T03:20:32.534Z,0
2018-04-10T03:20:58.690Z,0
2018-04-10T03:21:24.856Z,0
2018-04-10T03:21:50.991Z,0
2018-04-10T03:22:17.126Z,0
2018-04-10T03:22:43.261Z,0
2018-04-10T03:23:09.398Z,0
2018-04-10T03:23:35.540Z,0
2018-04-10T03:24:01.687Z,0
2018-04-10T03:24:27.847Z,0
2018-04-10T03:24:54.024Z,0
2018-04-10T03:25:20.162Z,0
2018-04-10T03:25:46.300Z,0
2018-04-10T03:26:12.437Z,0
2018-04-10T03:26:38.578Z,0
2018-04-10T03:27:04.742Z,0
2018-04-10T03:27:30.910Z,0
2018-04-10T03:27:57.046Z,0
2018-04-10T03:28:23.188Z,0
2018-04-10T03:28:49.330Z,0
2018-04-10T03:29:15.471Z,0
2018-04-10T03:29:41.629Z,0
2018-04-10T03:30:07.766Z,0
2018-04-10T03:30:33.908Z,0
2018-04-10T03:31:00.073Z,0
2018-04-10T03:31:26.212Z,0
2018-04-10T03:31:52.350Z,0
2018-04-10T03:32:18.496Z,0
2018-04-10T03:32:44.639Z,0
2018-04-10T03:33:10.777Z,0
2018-04-10T03:33:36.920Z,0
2018-04-10T03:34:03.066Z,0
2018-04-10T03:34:29.222Z,0
2018-04-10T03:34:55.356Z,0
2018-04-10T03:35:21.495Z,0
2018-04-10T03:35:47.662Z,0
2018-04-10T03:36:13.823Z,0
2018-04-10T03:36:40.011Z,0
2018-04-10T03:37:06.095Z,0
2018-04-10T03:37:32.238Z,0
2018-04-10T03:37:58.383Z,0
2018-04-10T03:38:24.523Z,0
2018-04-10T03:38:50.659Z,0
2018-04-10T03:39:16.801Z,0
2018-04-10T03:39:42.940Z,0
2018-04-10T03:40:09.083Z,0
2018-04-10T03:40:35.226Z,0
2018-04-10T03:41:01.366Z,0
2018-04-10T03:41:27.510Z,0
2018-04-10T03:41:53.640Z,0
2018-04-10T03:42:19.779Z,0
2018-04-10T03:42:45.916Z,0
2018-04-10T03:43:12.057Z,0
2018-04-10T03:43:38.221Z,0
2018-04-10T03:44:04.361Z,0
2018-04-10T03:44:30.550Z,0
2018-04-10T03:44:56.687Z,0
2018-04-10T03:45:22.828Z,0
2018-04-10T03:45:48.971Z,0
2018-04-10T03:46:15.159Z,0
2018-04-10T03:46:41.316Z,0
2018-04-10T03:47:07.484Z,0
2018-04-10T03:47:33.626Z,0
2018-04-10T03:47:59.764Z,0
2018-04-10T03:48:25.899Z,0
2018-04-10T03:48:52.045Z,0
2018-04-10T03:49:18.178Z,0
2018-04-10T03:49:44.323Z,0
2018-04-10T03:50:10.468Z,0
2018-04-10T03:50:36.605Z,0
2018-04-10T03:51:02.765Z,0
2018-04-10T03:51:28.913Z,0
2018-04-10T03:51:55.049Z,0
2018-04-10T03:52:21.191Z,0
2018-04-10T03:52:47.336Z,0
2018-04-10T03:53:13.517Z,0
2018-04-10T03:53:39.651Z,0
2018-04-10T03:54:05.796Z,0
2018-04-10T03:54:31.932Z,0
2018-04-10T03:54:58.071Z,0
2018-04-10T03:55:24.207Z,0
2018-04-10T03:55:50.373Z,0
2018-04-10T03:56:16.506Z,0
2018-04-10T03:56:42.649Z,0
2018-04-10T03:57:08.788Z,0
2018-04-10T03:57:34.922Z,0
2018-04-10T03:58:01.073Z,0
2018-04-10T03:58:27.234Z,0
2018-04-10T03:58:53.372Z,0
2018-04-10T03:59:19.517Z,0
2018-04-10T03:59:45.660Z,0
2018-04-10T04:00:11.802Z,0
2018-04-10T04:00:37.941Z,0
2018-04-10T04:01:04.083Z,0
2018-04-10T04:01:30.216Z,0
2018-04-10T04:01:56.360Z,0
2018-04-10T04:02:22.493Z,0
2018-04-10T04:02:48.635Z,0
2018-04-10T04:03:14.767Z,0
2018-04-10T04:03:40.909Z,0
2018-04-10T04:04:07.046Z,0
2018-04-10T04:04:33.191Z,0
2018-04-10T04:04:59.344Z,0
2018-04-10T04:05:25.492Z,0
2018-04-10T04:05:51.645Z,0
2018-04-10T04:06:17.791Z,0
2018-04-10T04:06:43.978Z,0
2018-04-10T04:07:10.139Z,0
2018-04-10T04:07:36.277Z,0
2018-04-10T04:08:02.421Z,0
2018-04-10T04:08:28.555Z,0
2018-04-10T04:08:54.703Z,0
2018-04-10T04:09:20.856Z,0
2018-04-10T04:09:47.005Z,0
2018-04-10T04:10:13.144Z,0
2018-04-10T04:10:39.283Z,0
2018-04-10T04:11:05.439Z,0
2018-04-10T04:11:31.580Z,0
2018-04-10T04:11:57.749Z,0
2018-04-10T04:12:23.886Z,4
2018-04-10T04:12:50.047Z,4
2018-04-10T04:13:16.190Z,4
2018-04-10T04:13:42.332Z,4
2018-04-10T04:14:08.468Z,4
2018-04-10T04:14:34.611Z,4
2018-04-10T04:15:00.750Z,0
2018-04-10T04:15:26.891Z,0
2018-04-10T04:15:53.028Z,0
2018-04-10T04:16:19.174Z,4
2018-04-10T04:16:45.313Z,4
2018-04-10T04:17:11.477Z,4
2018-04-10T04:17:37.620Z,4
2018-04-10T04:18:03.760Z,4
2018-04-10T04:18:29.902Z,4
2018-04-10T04:18:56.037Z,4
2018-04-10T04:19:22.183Z,4
2018-04-10T04:19:48.316Z,8
2018-04-10T04:20:14.456Z,8
2018-04-10T04:20:40.600Z,4
2018-04-10T04:21:06.769Z,8
2018-04-10T04:21:32.931Z,8
2018-04-10T04:21:59.064Z,8
2018-04-10T04:22:25.200Z,8
2018-04-10T04:22:51.342Z,12
2018-04-10T04:23:17.479Z,12
2018-04-10T04:23:43.617Z,12
2018-04-10T04:24:09.761Z,12
2018-04-10T04:24:35.927Z,16
2018-04-10T04:25:02.063Z,16
2018-04-10T04:25:28.210Z,20
2018-04-10T04:25:54.350Z,16
2018-04-10T04:26:20.493Z,20
2018-04-10T04:26:46.631Z,24
2018-04-10T04:27:12.766Z,24
2018-04-10T04:27:38.909Z,24
2018-04-10T04:28:05.045Z,24
2018-04-10T04:28:31.182Z,24
2018-04-10T04:28:57.323Z,32
2018-04-10T04:29:23.467Z,32
2018-04-10T04:29:49.607Z,32
2018-04-10T04:30:15.748Z,36
2018-04-10T04:30:41.891Z,36
2018-04-10T04:31:08.026Z,40
2018-04-10T04:31:34.168Z,44
2018-04-10T04:32:00.303Z,44
2018-04-10T04:32:26.472Z,48
2018-04-10T04:32:52.607Z,52
2018-04-10T04:33:18.749Z,52
2018-04-10T04:33:44.891Z,56
2018-04-10T04:34:11.024Z,60
2018-04-10T04:34:37.165Z,64
2018-04-10T04:35:03.312Z,64
2018-04-10T04:35:29.441Z,72
2018-04-10T04:35:55.589Z,72
2018-04-10T04:36:21.751Z,76
2018-04-10T04:36:47.892Z,84
2018-04-10T04:37:14.036Z,88
2018-04-10T04:37:40.198Z,88
2018-04-10T04:38:06.363Z,96
2018-04-10T04:38:32.495Z,100
2018-04-10T04:38:58.658Z,104
2018-04-10T04:39:24.800Z,112
2018-04-10T04:39:50.939Z,112
2018-04-10T04:40:17.080Z,120
2018-04-10T04:40:43.220Z,128
2018-04-10T04:41:09.355Z,132
2018-04-10T04:41:35.496Z,136
2018-04-10T04:42:01.638Z,144
2018-04-10T04:42:27.788Z,148
2018-04-10T04:42:53.923Z,152
2018-04-10T04:43:20.066Z,164
2018-04-10T04:43:46.229Z,172
2018-04-10T04:44:12.367Z,176
2018-04-10T04:44:38.512Z,184
2018-04-10T04:45:04.682Z,192
2018-04-10T04:45:30.819Z,200
2018-04-10T04:45:56.983Z,208
2018-04-10T04:46:23.126Z,220
2018-04-10T04:46:49.261Z,228
2018-04-10T04:47:15.431Z,236
2018-04-10T04:47:41.578Z,248
2018-04-10T04:48:07.702Z,260
2018-04-10T04:48:33.841Z,268
2018-04-10T04:48:59.984Z,284
2018-04-10T04:49:26.125Z,300
2018-04-10T04:49:52.286Z,312
2018-04-10T04:50:18.425Z,328
2018-04-10T04:50:44.560Z,344
2018-04-10T04:51:10.702Z,356
2018-04-10T04:51:36.844Z,372
2018-04-10T04:52:02.990Z,392
2018-04-10T04:52:29.122Z,412
2018-04-10T04:52:55.256Z,432
2018-04-10T04:53:21.403Z,452
2018-04-10T04:53:47.539Z,476
2018-04-10T04:54:13.685Z,500
2018-04-10T04:54:39.826Z,528
2018-04-10T04:55:05.969Z,556
2018-04-10T04:55:32.111Z,588
2018-04-10T04:55:58.246Z,620
2018-04-10T04:56:24.386Z,656
2018-04-10T04:56:50.525Z,692
2018-04-10T04:57:16.670Z,728
2018-04-10T04:57:42.808Z,764
2018-04-10T04:58:08.951Z,804
2018-04-10T04:58:35.092Z,840
2018-04-10T04:59:01.231Z,880
2018-04-10T04:59:27.369Z,916
2018-04-10T04:59:53.537Z,956
2018-04-10T05:00:19.695Z,992
2018-04-10T05:00:45.868Z,1032
2018-04-10T05:01:11.998Z,1068
2018-04-10T05:01:38.153Z,1104
2018-04-10T05:02:04.282Z,1140
2018-04-10T05:02:30.442Z,1180
2018-04-10T05:02:56.608Z,1220
2018-04-10T05:03:22.752Z,1256
2018-04-10T05:03:48.892Z,1300
2018-04-10T05:04:15.026Z,1336
2018-04-10T05:04:41.166Z,1380
2018-04-10T05:05:07.324Z,1424
2018-04-10T05:05:33.468Z,1464
2018-04-10T05:05:59.604Z,1508
2018-04-10T05:06:25.743Z,1556
2018-04-10T05:06:51.913Z,1596
2018-04-10T05:07:18.108Z,1644
2018-04-10T05:07:44.247Z,1692
2018-04-10T05:08:10.388Z,1740
2018-04-10T05:08:36.527Z,1784
2018-04-10T05:09:02.667Z,1836
2018-04-10T05:09:28.806Z,1884
2018-04-10T05:09:54.943Z,1932
2018-04-10T05:10:21.106Z,1984
2018-04-10T05:10:47.254Z,2036
2018-04-10T05:11:13.405Z,2092
2018-04-10T05:11:39.565Z,2144
2018-04-10T05:12:05.706Z,2204
2018-04-10T05:12:31.843Z,2256
2018-04-10T05:12:58.017Z,2320
2018-04-10T05:13:24.164Z,2384
2018-04-10T05:13:50.303Z,2444
2018-04-10T05:14:16.444Z,2512
2018-04-10T05:14:42.576Z,2576
2018-04-10T05:15:08.718Z,2648
2018-04-10T05:15:34.856Z,2712
2018-04-10T05:16:01.027Z,2776
2018-04-10T05:16:27.165Z,2840
2018-04-10T05:16:53.307Z,2900
2018-04-10T05:17:19.444Z,2952
2018-04-10T05:17:45.588Z,3000
2018-04-10T05:18:11.732Z,3040
2018-04-10T05:18:37.867Z,3088
2018-04-10T05:19:04.026Z,3136
2018-04-10T05:19:30.165Z,3172
2018-04-10T05:19:56.336Z,3212
2018-04-10T05:20:22.473Z,3248
2018-04-10T05:20:48.612Z,3280
2018-04-10T05:21:14.781Z,3316
2018-04-10T05:21:40.923Z,3356
2018-04-10T05:22:07.056Z,3388
2018-04-10T05:22:33.226Z,3420
2018-04-10T05:22:59.380Z,3452
2018-04-10T05:23:25.515Z,3492
2018-04-10T05:23:51.657Z,3520
2018-04-10T05:24:17.818Z,3552
2018-04-10T05:24:43.963Z,3580
2018-04-10T05:25:10.104Z,3604
2018-04-10T05:25:36.239Z,3620
2018-04-10T05:26:02.379Z,3640
2018-04-10T05:26:28.519Z,3660
2018-04-10T05:26:54.653Z,3668
2018-04-10T05:27:20.814Z,3680
2018-04-10T05:27:46.951Z,3692
2018-04-10T05:28:13.089Z,3704
2018-04-10T05:28:39.231Z,3712
2018-04-10T05:29:05.367Z,3720
2018-04-10T05:29:31.506Z,3724
2018-04-10T05:29:57.689Z,3732
2018-04-10T05:30:23.791Z,3744
2018-04-10T05:30:49.929Z,3760
2018-04-10T05:31:16.066Z,3772
2018-04-10T05:31:42.208Z,3784
2018-04-10T05:32:08.343Z,3796
2018-04-10T05:32:34.498Z,3800
2018-04-10T05:33:00.662Z,3808
2018-04-10T05:33:26.800Z,3812
2018-04-10T05:33:52.940Z,3824
2018-04-10T05:34:19.102Z,3836
2018-04-10T05:34:45.240Z,3856
2018-04-10T05:35:11.385Z,3868
2018-04-10T05:35:37.549Z,3884
2018-04-10T05:36:03.694Z,3896
2018-04-10T05:36:29.873Z,3904
2018-04-10T05:36:56.039Z,3908
2018-04-10T05:37:22.182Z,3916
2018-04-10T05:37:48.321Z,3932
2018-04-10T05:38:14.464Z,3964
2018-04-10T05:38:40.612Z,4004
2018-04-10T05:39:06.779Z,4044
2018-04-10T05:39:32.913Z,4100
2018-04-10T05:39:59.063Z,4152
2018-04-10T05:40:25.225Z,4212
2018-04-10T05:40:51.364Z,4280
2018-04-10T05:41:17.538Z,4352
2018-04-10T05:41:43.650Z,4408
2018-04-10T05:42:09.788Z,4464
2018-04-10T05:42:35.933Z,4516
2018-04-10T05:43:02.071Z,4568
2018-04-10T05:43:28.209Z,4620
2018-04-10T05:43:54.356Z,4668
2018-04-10T05:44:20.491Z,4708
2018-04-10T05:44:46.633Z,4744
2018-04-10T05:45:12.827Z,4784
2018-04-10T05:45:38.966Z,4824
2018-04-10T05:46:05.128Z,4876
2018-04-10T05:46:31.274Z,4924
2018-04-10T05:46:57.409Z,4992
2018-04-10T05:47:23.551Z,5068
2018-04-10T05:47:49.688Z,5144
2018-04-10T05:48:15.832Z,5236
2018-04-10T05:48:41.968Z,5340
2018-04-10T05:49:08.111Z,5452
2018-04-10T05:49:34.270Z,5560
2018-04-10T05:50:00.415Z,5640
2018-04-10T05:50:26.558Z,5700
2018-04-10T05:50:52.725Z,5740
2018-04-10T05:51:18.872Z,5776
2018-04-10T05:51:45.017Z,5816
2018-04-10T05:52:11.151Z,5836
2018-04-10T05:52:37.288Z,5848
2018-04-10T05:53:03.452Z,5864
2018-04-10T05:53:29.563Z,5884
2018-04-10T05:53:55.703Z,5916
2018-04-10T05:54:21.846Z,5956
2018-04-10T05:54:47.991Z,6020
2018-04-10T05:55:14.213Z,6084
2018-04-10T05:55:40.365Z,6144
2018-04-10T05:56:06.629Z,6204
2018-04-10T05:56:32.770Z,6284
2018-04-10T05:56:58.901Z,6340
2018-04-10T05:57:25.047Z,6388
2018-04-10T05:57:51.184Z,6420
2018-04-10T05:58:17.347Z,6456
2018-04-10T05:58:43.537Z,6472
2018-04-10T05:59:09.634Z,6452
2018-04-10T05:59:35.773Z,6412
2018-04-10T06:00:01.911Z,6428
2018-04-10T06:00:28.053Z,6516
2018-04-10T06:00:54.187Z,6624
2018-04-10T06:01:20.328Z,6716
2018-04-10T06:01:46.492Z,6772
2018-04-10T06:02:12.663Z,6792
2018-04-10T06:02:38.820Z,6812
2018-04-10T06:03:04.964Z,6856
2018-04-10T06:03:31.109Z,6924
2018-04-10T06:03:57.255Z,7008
2018-04-10T06:04:23.418Z,7088
2018-04-10T06:04:49.555Z,7168
2018-04-10T06:05:15.697Z,7268
2018-04-10T06:05:41.857Z,7344
2018-04-10T06:06:08.022Z,7404
2018-04-10T06:06:34.162Z,7464
2018-04-10T06:07:00.305Z,7492
2018-04-10T06:07:26.444Z,7496
2018-04-10T06:07:52.578Z,7532
2018-04-10T06:08:18.723Z,7596
2018-04-10T06:08:44.886Z,7688
2018-04-10T06:09:11.029Z,7812
2018-04-10T06:09:37.169Z,7944
2018-04-10T06:10:03.344Z,8088
2018-04-10T06:10:29.487Z,8208
2018-04-10T06:10:55.625Z,8300
2018-04-10T06:11:21.765Z,8412
2018-04-10T06:11:47.908Z,8512
2018-04-10T06:12:14.051Z,8600
2018-04-10T06:12:40.183Z,8708
2018-04-10T06:13:06.326Z,8816
2018-04-10T06:13:32.461Z,8932
2018-04-10T06:13:58.611Z,9044
2018-04-10T06:14:24.776Z,9148
2018-04-10T06:14:50.922Z,9256
2018-04-10T06:15:17.065Z,9372
2018-04-10T06:15:43.228Z,9484
2018-04-10T06:16:09.369Z,9596
2018-04-10T06:16:35.543Z,9700
2018-04-10T06:17:01.688Z,9784
2018-04-10T06:17:27.828Z,9856
2018-04-10T06:17:53.965Z,9928
2018-04-10T06:18:20.113Z,9996
2018-04-10T06:18:46.252Z,10056
2018-04-10T06:19:12.391Z,10096
2018-04-10T06:19:38.535Z,10124
2018-04-10T06:20:04.673Z,10160
2018-04-10T06:20:30.818Z,10204
2018-04-10T06:20:56.952Z,10268
2018-04-10T06:21:23.120Z,10300